createdAt,value
2022-11-18T00:02:18.966Z,94551.94
2022-11-18T00:04:46.702Z,94545.72
2022-11-18T00:07:14.536Z,94536.09
2022-11-18T00:09:42.319Z,94534.19
2022-11-18T00:12:27.526Z,94540.69
2022-11-18T00:14:55.284Z,94532.63
2022-11-18T00:17:24.600Z,94528.38
2022-11-18T00:19:52.355Z,94523.00
2022-11-18T00:22:21.541Z,94523.78
2022-11-18T00:24:51.074Z,94524.56
2022-11-18T00:27:18.861Z,94519.16
2022-11-18T00:29:46.598Z,94518.38
2022-11-18T00:32:14.565Z,94513.78
2022-11-18T00:34:43.743Z,94513.00
2022-11-18T00:37:11.537Z,94514.91
2022-11-18T00:39:39.305Z,94506.84
2022-11-18T00:42:24.430Z,94504.94
2022-11-18T00:44:52.223Z,94502.59
2022-11-18T00:47:19.937Z,94501.47
2022-11-18T00:49:49.007Z,94509.06
2022-11-18T00:52:16.752Z,94509.78
2022-11-18T00:54:44.564Z,94507.41
2022-11-18T00:57:12.368Z,94505.06
2022-11-18T00:59:40.117Z,94495.44
2022-11-18T01:02:07.929Z,94499.25
2022-11-18T01:04:35.893Z,94502.25
2022-11-18T01:07:05.136Z,94504.88
2022-11-18T01:09:33.040Z,94507.88
2022-11-18T01:12:18.144Z,94509.78
2022-11-18T01:14:46.197Z,94504.75
2022-11-18T01:17:13.957Z,94508.56
2022-11-18T01:19:41.713Z,94505.09
2022-11-18T01:22:10.823Z,94502.41
2022-11-18T01:24:38.653Z,94501.59
2022-11-18T01:27:06.400Z,94496.56
2022-11-18T01:29:34.190Z,94496.56
2022-11-18T01:32:23.317Z,94490.75
2022-11-18T01:34:49.751Z,94501.06
2022-11-18T01:37:19.028Z,94494.13
2022-11-18T01:39:46.868Z,94502.84
2022-11-18T01:42:16.811Z,94492.44
2022-11-18T01:45:09.716Z,94494.34
2022-11-18T01:47:41.890Z,94492.78
2022-11-18T01:50:11.404Z,94496.56
2022-11-18T01:52:41.505Z,94493.88
2022-11-18T01:55:17.984Z,94485.81
2022-11-18T01:57:47.394Z,94488.84
2022-11-18T02:00:15.764Z,94497.72
2022-11-18T02:02:43.584Z,94491.19
2022-11-18T02:05:12.723Z,94491.19
2022-11-18T02:07:44.603Z,94491.66
2022-11-18T02:10:21.543Z,94489.75
2022-11-18T02:12:50.986Z,94492.44
2022-11-18T02:15:22.711Z,94492.09
2022-11-18T02:17:59.001Z,94489.88
2022-11-18T02:20:32.026Z,94486.03
2022-11-18T02:23:24.747Z,94483.34
2022-11-18T02:26:14.620Z,94485.69
2022-11-18T02:29:01.003Z,94485.69
2022-11-18T02:31:33.999Z,94479.22
2022-11-18T02:34:08.332Z,94484.25
2022-11-18T02:36:43.217Z,94482.44
2022-11-18T02:39:18.191Z,94474.50
2022-11-18T02:41:49.355Z,94475.59
2022-11-18T02:44:20.618Z,94475.03
2022-11-18T02:46:52.856Z,94477.31
2022-11-18T02:49:24.889Z,94478.09
2022-11-18T02:51:53.592Z,94481.22
2022-11-18T02:54:24.462Z,94475.59
2022-11-18T02:56:53.645Z,94485.47
2022-11-18T02:59:22.944Z,94479.66
2022-11-18T03:01:50.734Z,94482.44
2022-11-18T03:04:19.232Z,94483.91
2022-11-18T03:06:55.226Z,94482.69
2022-11-18T03:09:29.168Z,94472.25
2022-11-18T03:12:08.539Z,94462.97
2022-11-18T03:14:46.367Z,94483.78
2022-11-18T03:17:22.117Z,94490.41
2022-11-18T03:20:01.531Z,94491.84
2022-11-18T03:22:34.073Z,94493.75
2022-11-18T03:25:08.536Z,94495.13
2022-11-18T03:27:39.894Z,94488.84
2022-11-18T03:30:13.836Z,94488.06
2022-11-18T03:32:46.796Z,94496.47
2022-11-18T03:35:22.099Z,94489.63
2022-11-18T03:37:51.633Z,94482.22
2022-11-18T03:40:23.652Z,94482.69
2022-11-18T03:42:55.600Z,94480.66
2022-11-18T03:45:28.068Z,94478.63
2022-11-18T03:48:00.105Z,94480.22
2022-11-18T03:50:30.705Z,94478.09
2022-11-18T03:52:59.755Z,94486.28
2022-11-18T03:55:33.108Z,94476.53
2022-11-18T03:58:06.823Z,94479.66
2022-11-18T04:00:42.352Z,94482.34
2022-11-18T04:03:11.038Z,94485.38
2022-11-18T04:05:42.608Z,94487.28
2022-11-18T04:08:14.239Z,94484.69
2022-11-18T04:10:48.946Z,94491.72
2022-11-18T04:13:20.295Z,94489.03
2022-11-18T04:15:49.635Z,94491.41
2022-11-18T04:18:17.722Z,94484.00
2022-11-18T04:20:45.567Z,94488.81
2022-11-18T04:23:13.395Z,94487.34
2022-11-18T04:25:41.168Z,94486.69
2022-11-18T04:28:10.258Z,94488.25
2022-11-18T04:30:38.120Z,94485.09
2022-11-18T04:33:07.268Z,94479.38
2022-11-18T04:35:34.998Z,94487.13
2022-11-18T04:38:04.804Z,94488.66
2022-11-18T04:40:32.926Z,94483.63
2022-11-18T04:43:00.823Z,94500.91
2022-11-18T04:45:28.632Z,94489.13
2022-11-18T04:48:01.965Z,94487.53
2022-11-18T04:50:32.637Z,94486.44
2022-11-18T04:53:00.424Z,94489.22
2022-11-18T04:55:28.291Z,94487.75
2022-11-18T04:57:56.085Z,94486.19
2022-11-18T05:00:24.119Z,94486.97
2022-11-18T05:02:51.883Z,94480.81
2022-11-18T05:05:19.669Z,94493.94
2022-11-18T05:07:48.940Z,94492.25
2022-11-18T05:10:17.587Z,94503.81
2022-11-18T05:12:50.279Z,94507.28
2022-11-18T05:15:19.019Z,94515.47
2022-11-18T05:17:47.094Z,94521.19
2022-11-18T05:20:15.039Z,94519.06
2022-11-18T05:22:43.103Z,94527.47
2022-11-18T05:25:12.374Z,94529.38
2022-11-18T05:27:40.195Z,94531.31
2022-11-18T05:30:08.924Z,94542.19
2022-11-18T05:32:36.668Z,94538.91
2022-11-18T05:35:04.577Z,94551.28
2022-11-18T05:37:33.585Z,94543.50
2022-11-18T05:40:01.344Z,94548.91
2022-11-18T05:42:47.993Z,94551.81
2022-11-18T05:45:16.105Z,94565.63
2022-11-18T05:47:57.952Z,94577.50
2022-11-18T05:50:25.717Z,94579.75
2022-11-18T05:52:53.661Z,94583.22
2022-11-18T05:55:23.935Z,94583.91
2022-11-18T05:57:52.999Z,94584.91
2022-11-18T06:00:21.028Z,94592.09
2022-11-18T06:02:52.587Z,94597.78
2022-11-18T06:05:23.204Z,94608.09
2022-11-18T06:07:51.239Z,94608.69
2022-11-18T06:10:22.487Z,94605.66
2022-11-18T06:12:55.865Z,94621.53
2022-11-18T06:15:27.369Z,94625.47
2022-11-18T06:18:00.338Z,94637.81
2022-11-18T06:20:28.671Z,94643.41
2022-11-18T06:22:59.211Z,94649.91
2022-11-18T06:25:26.949Z,94656.84
2022-11-18T06:28:00.184Z,94662.88
2022-11-18T06:30:28.411Z,94665.56
2022-11-18T06:32:56.239Z,94662.00
2022-11-18T06:35:24.024Z,94678.44
2022-11-18T06:37:51.784Z,94678.44
2022-11-18T06:40:19.789Z,94681.81
2022-11-18T06:43:04.973Z,94683.25
2022-11-18T06:45:34.073Z,94690.69
2022-11-18T06:48:01.720Z,94693.69
2022-11-18T06:50:29.864Z,94694.81
2022-11-18T06:52:57.711Z,94694.34
2022-11-18T06:55:25.744Z,94707.03
2022-11-18T06:57:53.468Z,94710.69
2022-11-18T07:00:21.556Z,94716.38
2022-11-18T07:02:50.971Z,94716.06
2022-11-18T07:05:18.744Z,94717.06
2022-11-18T07:07:46.717Z,94719.75
2022-11-18T07:10:14.635Z,94727.47
2022-11-18T07:12:42.446Z,94727.34
2022-11-18T07:15:11.057Z,94739.22
2022-11-18T07:17:38.823Z,94736.53
2022-11-18T07:20:09.292Z,94746.81
2022-11-18T07:22:37.046Z,94749.06
2022-11-18T07:25:05.056Z,94761.59
2022-11-18T07:27:33.032Z,94760.03
2022-11-18T07:30:00.842Z,94761.59
2022-11-18T07:32:28.604Z,94765.41
2022-11-18T07:34:56.351Z,94763.34
2022-11-18T07:37:25.768Z,94769.50
2022-11-18T07:39:53.660Z,94759.09
2022-11-18T07:42:21.537Z,94760.66
2022-11-18T07:44:49.294Z,94764.59
2022-11-18T07:47:17.028Z,94758.59
2022-11-18T07:49:44.783Z,94767.44
2022-11-18T07:52:12.540Z,94762.50
2022-11-18T07:54:41.663Z,94772.59
2022-11-18T07:57:09.988Z,94768.66
2022-11-18T07:59:37.769Z,94773.59
2022-11-18T08:02:06.744Z,94770.78
2022-11-18T08:04:34.546Z,94772.69
2022-11-18T08:07:02.390Z,94785.63
2022-11-18T08:09:30.258Z,94779.47
2022-11-18T08:11:59.391Z,94786.19
2022-11-18T08:14:28.755Z,94786.44
2022-11-18T08:16:56.717Z,94795.66
2022-11-18T08:19:24.729Z,94796.47
2022-11-18T08:21:52.653Z,94797.56
2022-11-18T08:24:20.391Z,94800.25
2022-11-18T08:26:48.140Z,94803.56
2022-11-18T08:29:23.471Z,94796.59
2022-11-18T08:31:52.676Z,94800.88
2022-11-18T08:34:20.445Z,94803.88
2022-11-18T08:36:48.245Z,94805.63
2022-11-18T08:39:16.421Z,94807.97
2022-11-18T08:41:47.060Z,94809.38
2022-11-18T08:44:17.716Z,94809.53
2022-11-18T08:46:46.604Z,94817.59
2022-11-18T08:49:14.381Z,94812.84
2022-11-18T08:51:42.218Z,94814.41
2022-11-18T08:54:10.041Z,94818.72
2022-11-18T08:56:37.791Z,94814.22
2022-11-18T08:59:05.551Z,94823.53
2022-11-18T09:01:34.838Z,94824.00
2022-11-18T09:04:02.694Z,94825.25
2022-11-18T09:06:30.609Z,94826.03
2022-11-18T09:09:02.047Z,94821.25
2022-11-18T09:11:34.012Z,94826.75
2022-11-18T09:16:51.847Z,94819.03
2022-11-18T09:22:07.980Z,94828.66
2022-11-18T09:24:36.731Z,94819.81
2022-11-18T09:27:05.596Z,94818.03
2022-11-18T09:29:34.146Z,94821.31
2022-11-18T09:32:03.604Z,94821.75
2022-11-18T09:34:31.424Z,94822.81
2022-11-18T09:36:59.152Z,94819.78
2022-11-18T09:39:27.278Z,94825.75
2022-11-18T09:42:02.989Z,94832.66
2022-11-18T09:44:46.628Z,94835.78
2022-11-18T09:47:25.955Z,94838.41
2022-11-18T09:49:55.635Z,94828.66
2022-11-18T09:52:32.759Z,94837.31
2022-11-18T09:55:05.981Z,94841.38
2022-11-18T09:57:40.180Z,94837.69
2022-11-18T10:00:15.770Z,94833.66
2022-11-18T10:02:52.259Z,94832.56
2022-11-18T10:05:23.675Z,94827.75
2022-11-18T10:08:04.344Z,94837.28
2022-11-18T10:10:45.494Z,94834.81
2022-11-18T10:13:25.256Z,94846.78
2022-11-18T10:16:03.581Z,94840.47
2022-11-18T10:21:38.112Z,94851.72
2022-11-18T10:24:13.408Z,94843.97
2022-11-18T10:26:42.610Z,94847.97
2022-11-18T10:29:11.456Z,94851.13
2022-11-18T10:31:39.988Z,94862.53
2022-11-18T10:34:14.608Z,94854.75
2022-11-18T10:36:42.596Z,94866.00
2022-11-18T10:39:13.766Z,94864.09
2022-11-18T10:41:46.720Z,94862.41
2022-11-18T10:44:30.404Z,94875.28
2022-11-18T10:47:17.421Z,94873.38
2022-11-18T10:49:46.588Z,94879.31
2022-11-18T10:52:15.236Z,94871.13
2022-11-18T10:54:44.119Z,94879.75
2022-11-18T10:57:19.416Z,94888.63
2022-11-18T10:59:51.080Z,94880.53
2022-11-18T11:02:21.514Z,94885.50
2022-11-18T11:04:52.039Z,94884.78
2022-11-18T11:07:32.552Z,94889.63
2022-11-18T11:10:03.115Z,94889.63
2022-11-18T11:12:33.561Z,94888.78
2022-11-18T11:15:06.308Z,94888.38
2022-11-18T11:17:38.666Z,94894.16
2022-11-18T11:20:21.619Z,94889.97
2022-11-18T11:22:50.106Z,94891.94
2022-11-18T11:25:19.796Z,94893.06
2022-11-18T11:30:48.136Z,94888.38
2022-11-18T11:33:33.822Z,94893.44
2022-11-18T11:36:24.935Z,94893.22
2022-11-18T11:39:04.907Z,94892.56
2022-11-18T11:41:44.887Z,94897.47
2022-11-18T11:44:39.477Z,94906.34
2022-11-18T11:47:37.339Z,94904.00
2022-11-18T11:50:13.949Z,94908.03
2022-11-18T11:52:55.482Z,94909.75
2022-11-18T11:55:28.851Z,94905.13
2022-11-18T11:58:07.908Z,94914.69
2022-11-18T12:00:42.787Z,94913.44
2022-11-18T12:03:27.462Z,94913.91
2022-11-18T12:05:55.204Z,94922.06
2022-11-18T12:08:26.943Z,94932.28
2022-11-18T12:11:01.043Z,94927.81
2022-11-18T12:13:39.183Z,94928.59
2022-11-18T12:16:25.470Z,94934.19
2022-11-18T12:19:00.069Z,94927.34
2022-11-18T12:21:58.135Z,94935.66
2022-11-18T12:24:33.212Z,94933.19
2022-11-18T12:27:02.791Z,94924.97
2022-11-18T12:29:37.902Z,94935.09
2022-11-18T12:32:26.594Z,94926.31
2022-11-18T12:34:59.785Z,94934.88
2022-11-18T12:37:58.478Z,94937.56
2022-11-18T12:40:47.412Z,94923.97
2022-11-18T12:44:04.681Z,94931.25
2022-11-18T12:46:56.985Z,94936.44
2022-11-18T12:50:01.203Z,94942.47
2022-11-18T12:52:54.477Z,94938.41
2022-11-18T12:55:26.074Z,94943.53
2022-11-18T12:57:55.187Z,94939.72
2022-11-18T13:00:51.994Z,94937.75
2022-11-18T13:03:25.548Z,94948.19
2022-11-18T13:06:04.535Z,94942.34
2022-11-18T13:08:32.722Z,94940.31
2022-11-18T13:11:34.026Z,94939.88
2022-11-18T13:14:22.690Z,94946.16
2022-11-18T13:17:08.074Z,94946.41
2022-11-18T13:19:35.910Z,94950.88
2022-11-18T13:22:22.156Z,94949.75
2022-11-18T13:24:51.876Z,94948.47
2022-11-18T13:27:29.594Z,94945.28
2022-11-18T13:30:05.164Z,94949.59
2022-11-18T13:32:33.268Z,94957.66
2022-11-18T13:35:12.538Z,94949.09
2022-11-18T13:37:50.439Z,94950.56
2022-11-18T13:40:21.355Z,94943.94
2022-11-18T13:42:49.125Z,94951.66
2022-11-18T13:45:18.678Z,94951.66
2022-11-18T13:47:49.735Z,94951.56
2022-11-18T13:50:23.551Z,94950.94
2022-11-18T13:53:02.779Z,94951.56
2022-11-18T13:55:34.915Z,94953.31
2022-11-18T13:58:06.404Z,94965.50
2022-11-18T14:00:36.933Z,94956.06
2022-11-18T14:03:16.187Z,94971.94
2022-11-18T14:05:43.940Z,94965.75
2022-11-18T14:08:26.268Z,94971.81
2022-11-18T14:10:54.400Z,94972.59
2022-11-18T14:13:26.908Z,94966.88
2022-11-18T14:15:57.936Z,94966.16
2022-11-18T14:18:32.371Z,94968.66
2022-11-18T14:21:01.303Z,94968.00
2022-11-18T14:23:31.698Z,94969.56
2022-11-18T14:26:01.988Z,94973.84
2022-11-18T14:28:33.869Z,94982.97
2022-11-18T14:31:06.679Z,94987.38
2022-11-18T14:33:35.772Z,94982.44
2022-11-18T14:36:10.713Z,94982.25
2022-11-18T14:39:04.088Z,94979.34
2022-11-18T14:41:50.226Z,94991.03
2022-11-18T14:44:18.805Z,95000.81
2022-11-18T14:46:52.214Z,95007.91
2022-11-18T14:49:23.563Z,95000.78
2022-11-18T14:51:52.738Z,95004.38
2022-11-18T14:54:26.351Z,95002.75
2022-11-18T14:56:58.141Z,95009.25
2022-11-18T14:59:26.141Z,95003.06
2022-11-18T15:01:56.356Z,95006.44
2022-11-18T15:04:25.177Z,95010.25
2022-11-18T15:06:53.207Z,95011.13
2022-11-18T15:09:21.161Z,95014.31
2022-11-18T15:11:48.902Z,95011.03
2022-11-18T15:14:17.127Z,95017.06
2022-11-18T15:16:45.199Z,95026.13
2022-11-18T15:19:16.060Z,95033.28
2022-11-18T15:21:43.800Z,95041.00
2022-11-18T15:24:11.564Z,95044.75
2022-11-18T15:26:41.633Z,95039.72
2022-11-18T15:29:16.239Z,95046.09
2022-11-18T15:31:44.062Z,95053.38
2022-11-18T15:34:11.871Z,95048.03
2022-11-18T15:36:41.049Z,95056.78
2022-11-18T15:39:10.568Z,95058.53
2022-11-18T15:41:39.830Z,95058.06
2022-11-18T15:44:11.661Z,95058.06
2022-11-18T15:46:39.867Z,95062.53
2022-11-18T15:49:09.692Z,95059.53
2022-11-18T15:51:38.209Z,95068.25
2022-11-18T15:54:07.400Z,95067.34
2022-11-18T15:56:35.401Z,95061.03
2022-11-18T15:59:05.285Z,95069.28
2022-11-18T16:01:34.510Z,95071.66
2022-11-18T16:04:02.881Z,95083.97
2022-11-18T16:06:30.726Z,95070.41
2022-11-18T16:09:00.185Z,95070.72
2022-11-18T16:11:47.922Z,95075.63
2022-11-18T16:14:18.724Z,95072.78
2022-11-18T16:16:48.421Z,95085.13
2022-11-18T16:19:18.355Z,95090.03
2022-11-18T16:21:47.950Z,95078.16
2022-11-18T16:24:18.890Z,95077.84
2022-11-18T16:26:48.268Z,95088.59
2022-11-18T16:29:17.406Z,95086.69
2022-11-18T16:31:50.653Z,95089.72
2022-11-18T16:34:20.559Z,95096.34
2022-11-18T16:36:49.811Z,95103.16
2022-11-18T16:39:19.789Z,95097.78
2022-11-18T16:41:49.207Z,95103.16
2022-11-18T16:44:17.943Z,95102.38
2022-11-18T16:46:50.202Z,95097.31
2022-11-18T16:49:20.137Z,95097.16
2022-11-18T16:51:49.258Z,95103.16
2022-11-18T16:54:18.969Z,95105.69
2022-11-18T16:56:48.801Z,95103.34
2022-11-18T16:59:21.672Z,95100.19
2022-11-18T17:01:50.297Z,95105.84
2022-11-18T17:04:18.735Z,95106.19
2022-11-18T17:06:47.172Z,95102.56
2022-11-18T17:09:17.305Z,95121.22
2022-11-18T17:11:45.435Z,95118.84
2022-11-18T17:14:13.391Z,95117.72
2022-11-18T17:16:42.721Z,95114.09
2022-11-18T17:19:14.130Z,95123.59
2022-11-18T17:21:42.287Z,95118.22
2022-11-18T17:24:10.542Z,95131.81
2022-11-18T17:26:38.290Z,95127.56
2022-11-18T17:29:06.064Z,95130.38
2022-11-18T17:31:34.576Z,95139.25
2022-11-18T17:34:03.769Z,95136.25
2022-11-18T17:36:31.673Z,95147.44
2022-11-18T17:39:01.237Z,95141.44
2022-11-18T17:41:47.358Z,95144.63
2022-11-18T17:44:17.773Z,95146.97
2022-11-18T17:46:47.119Z,95144.78
2022-11-18T17:49:18.215Z,95152.84
2022-11-18T17:51:46.987Z,95151.09
2022-11-18T17:54:15.710Z,95147.91
2022-11-18T17:56:43.747Z,95161.19
2022-11-18T17:59:11.712Z,95159.94
2022-11-18T18:01:39.616Z,95167.50
2022-11-18T18:04:07.414Z,95170.66
2022-11-18T18:06:36.591Z,95177.16
2022-11-18T18:09:04.659Z,95177.16
2022-11-18T18:11:32.538Z,95184.41
2022-11-18T18:14:14.254Z,95191.50
2022-11-18T18:16:45.012Z,95185.06
2022-11-18T18:19:15.033Z,95192.00
2022-11-18T18:21:44.550Z,95191.34
2022-11-18T18:24:14.710Z,95193.75
2022-11-18T18:26:42.545Z,95192.78
2022-11-18T18:29:10.363Z,95197.84
2022-11-18T18:31:38.604Z,95192.00
2022-11-18T18:34:06.517Z,95195.16
2022-11-18T18:36:34.317Z,95178.91
2022-11-18T18:39:03.882Z,95208.75
2022-11-18T18:41:32.328Z,95203.53
2022-11-18T18:44:00.348Z,95217.44
2022-11-18T18:46:34.072Z,95209.84
2022-11-18T18:49:05.217Z,95209.53
2022-11-18T18:51:37.021Z,95201.97
2022-11-18T18:54:07.655Z,95213.00
2022-11-18T18:56:35.405Z,95208.28
2022-11-18T18:59:03.297Z,95213.00
2022-11-18T19:01:31.230Z,95211.56
2022-11-18T19:04:00.939Z,95214.88
2022-11-18T19:09:20.543Z,95219.47
2022-11-18T19:12:05.736Z,95224.03
2022-11-18T19:14:35.416Z,95212.84
2022-11-18T19:17:10.148Z,95224.38
2022-11-18T19:19:57.582Z,95228.31
2022-11-18T19:22:26.124Z,95222.94
2022-11-18T19:24:55.707Z,95218.38
2022-11-18T19:27:24.028Z,95232.09
2022-11-18T19:29:51.910Z,95236.34
2022-11-18T19:32:19.628Z,95242.22
2022-11-18T19:34:47.355Z,95245.56
2022-11-18T19:37:15.085Z,95238.59
2022-11-18T19:39:43.501Z,95233.84
2022-11-18T19:42:12.638Z,95236.53
2022-11-18T19:44:40.527Z,95227.22
2022-11-18T19:47:08.275Z,95235.91
2022-11-18T19:49:36.030Z,95221.50
2022-11-18T19:52:03.817Z,95228.00
2022-11-18T19:54:31.607Z,95227.19
2022-11-18T19:56:59.742Z,95228.13
2022-11-18T19:59:28.871Z,95236.03
2022-11-18T20:01:56.897Z,95240.44
2022-11-18T20:04:24.854Z,95241.69
2022-11-18T20:06:52.659Z,95247.81
2022-11-18T20:09:21.534Z,95252.09
2022-11-18T20:11:49.709Z,95255.41
2022-11-18T20:14:17.451Z,95259.50
2022-11-18T20:16:46.646Z,95264.53
2022-11-18T20:19:17.046Z,95259.97
2022-11-18T20:21:45.114Z,95262.50
2022-11-18T20:24:16.849Z,95261.22
2022-11-18T20:26:45.075Z,95266.53
2022-11-18T20:29:13.433Z,95261.47
2022-11-18T20:31:41.663Z,95265.28
2022-11-18T20:34:12.626Z,95263.53
2022-11-18T20:36:40.450Z,95257.63
2022-11-18T20:39:12.337Z,95264.38
2022-11-18T20:41:40.101Z,95262.94
2022-11-18T20:44:08.112Z,95266.53
2022-11-18T20:46:35.891Z,95269.22
2022-11-18T20:49:03.692Z,95271.75
2022-11-18T20:51:33.110Z,95275.41
2022-11-18T20:54:00.901Z,95273.34
2022-11-18T20:56:29.372Z,95273.00
2022-11-18T20:58:58.135Z,95274.13
2022-11-18T21:01:27.397Z,95268.94
2022-11-18T21:03:57.133Z,95269.22
2022-11-18T21:06:26.352Z,95270.16
2022-11-18T21:08:57.949Z,95278.81
2022-11-18T21:11:26.625Z,95274.84
2022-11-18T21:14:13.158Z,95285.94
2022-11-18T21:16:42.532Z,95282.78
2022-11-18T21:19:10.447Z,95290.53
2022-11-18T21:21:48.803Z,95284.53
2022-11-18T21:24:19.909Z,95294.97
2022-11-18T21:26:49.449Z,95287.41
2022-11-18T21:29:18.310Z,95284.84
2022-11-18T21:31:46.953Z,95277.59
2022-11-18T21:34:15.781Z,95277.28
2022-11-18T21:36:46.979Z,95284.25
2022-11-18T21:39:19.635Z,95285.31
2022-11-18T21:41:51.990Z,95284.84
2022-11-18T21:44:22.827Z,95287.06
2022-11-18T21:46:50.650Z,95297.16
2022-11-18T21:49:18.814Z,95290.22
2022-11-18T21:51:46.811Z,95300.34
2022-11-18T21:54:15.840Z,95300.22
2022-11-18T21:56:45.155Z,95302.25
2022-11-18T21:59:12.966Z,95301.38
2022-11-18T22:01:40.774Z,95305.66
2022-11-18T22:04:08.540Z,95302.16
2022-11-18T22:06:36.406Z,95301.19
2022-11-18T22:09:05.971Z,95296.50
2022-11-18T22:11:34.097Z,95300.94
2022-11-18T22:14:04.455Z,95304.72
2022-11-18T22:16:32.228Z,95300.44
2022-11-18T22:19:05.000Z,95305.81
2022-11-18T22:21:35.665Z,95303.81
2022-11-18T22:24:03.421Z,95303.50
2022-11-18T22:26:31.143Z,95310.56
2022-11-18T22:28:59.705Z,95309.47
2022-11-18T22:31:29.621Z,95309.97
2022-11-18T22:33:57.698Z,95307.28
2022-11-18T22:36:27.824Z,95300.81
2022-11-18T22:38:56.269Z,95303.97
2022-11-18T22:41:43.494Z,95303.50
2022-11-18T22:44:12.374Z,95304.47
2022-11-18T22:46:43.521Z,95308.41
2022-11-18T22:49:12.639Z,95305.72
2022-11-18T22:51:41.086Z,95308.72
2022-11-18T22:54:37.784Z,95305.56
2022-11-18T22:56:57.558Z,95307.75
2022-11-18T22:59:26.061Z,95300.94
2022-11-18T23:01:55.232Z,95305.03
2022-11-18T23:04:23.012Z,95300.28
2022-11-18T23:06:51.046Z,95299.28
2022-11-18T23:09:19.188Z,95298.19
2022-11-18T23:12:04.831Z,95302.25
2022-11-18T23:14:32.685Z,95304.78
2022-11-18T23:17:01.775Z,95292.16
2022-11-18T23:19:29.519Z,95297.22
2022-11-18T23:21:57.392Z,95302.25
2022-11-18T23:24:25.388Z,95295.94
2022-11-18T23:26:53.108Z,95298.13
2022-11-18T23:29:21.673Z,95291.00
2022-11-18T23:31:49.690Z,95281.50
2022-11-18T23:34:19.580Z,95284.78
2022-11-18T23:36:47.698Z,95283.34
2022-11-18T23:39:18.639Z,95286.31
2022-11-18T23:41:47.039Z,95285.84
2022-11-18T23:44:14.919Z,95296.69
2022-11-18T23:46:42.661Z,95282.81
2022-11-18T23:49:10.756Z,95297.28
2022-11-18T23:51:40.440Z,95301.38
2022-11-18T23:54:09.457Z,95293.81
2022-11-18T23:56:38.440Z,95293.41
2022-11-18T23:59:06.499Z,95290.72
